sensor_id;sensor_type;location;lat;lon;timestamp;P1;durP1;ratioP1;P2;durP2;ratioP2
56399;SDS011;42298;53.638;9.876;2023-01-01T00:01:25;16.88;;;6.15;;
56399;SDS011;42298;53.638;9.876;2023-01-01T00:03:51;17.40;;;6.22;;
56399;SDS011;42298;53.638;9.876;2023-01-01T00:06:18;17.52;;;6.43;;
56399;SDS011;42298;53.638;9.876;2023-01-01T00:08:44;18.63;;;6.10;;
56399;SDS011;42298;53.638;9.876;2023-01-01T00:11:09;17.80;;;5.75;;
56399;SDS011;42298;53.638;9.876;2023-01-01T00:13:36;12.75;;;6.32;;
56399;SDS011;42298;53.638;9.876;2023-01-01T00:16:07;15.98;;;5.72;;
56399;SDS011;42298;53.638;9.876;2023-01-01T00:18:34;15.88;;;5.68;;
56399;SDS011;42298;53.638;9.876;2023-01-01T00:21:04;16.20;;;5.72;;
56399;SDS011;42298;53.638;9.876;2023-01-01T00:23:35;13.82;;;5.03;;
56399;SDS011;42298;53.638;9.876;2023-01-01T00:26:00;18.80;;;6.00;;
56399;SDS011;42298;53.638;9.876;2023-01-01T00:28:32;17.30;;;5.93;;
56399;SDS011;42298;53.638;9.876;2023-01-01T00:30:58;20.27;;;6.72;;
56399;SDS011;42298;53.638;9.876;2023-01-01T00:33:24;21.35;;;6.93;;
56399;SDS011;42298;53.638;9.876;2023-01-01T00:35:50;17.67;;;6.80;;
56399;SDS011;42298;53.638;9.876;2023-01-01T00:38:16;15.85;;;6.50;;
56399;SDS011;42298;53.638;9.876;2023-01-01T00:40:41;15.05;;;6.82;;
56399;SDS011;42298;53.638;9.876;2023-01-01T00:43:06;16.67;;;7.30;;
56399;SDS011;42298;53.638;9.876;2023-01-01T00:45:31;17.65;;;7.35;;
56399;SDS011;42298;53.638;9.876;2023-01-01T00:47:57;15.98;;;7.25;;
56399;SDS011;42298;53.638;9.876;2023-01-01T00:50:22;19.33;;;8.02;;
56399;SDS011;42298;53.638;9.876;2023-01-01T00:52:48;18.73;;;7.45;;
56399;SDS011;42298;53.638;9.876;2023-01-01T00:55:13;19.52;;;8.73;;
56399;SDS011;42298;53.638;9.876;2023-01-01T00:57:39;18.27;;;7.95;;
56399;SDS011;42298;53.638;9.876;2023-01-01T01:00:05;16.52;;;7.63;;
56399;SDS011;42298;53.638;9.876;2023-01-01T01:02:31;20.92;;;9.13;;
56399;SDS011;42298;53.638;9.876;2023-01-01T01:04:56;16.70;;;7.88;;
56399;SDS011;42298;53.638;9.876;2023-01-01T01:07:21;23.05;;;8.50;;
56399;SDS011;42298;53.638;9.876;2023-01-01T01:09:47;16.05;;;7.45;;
56399;SDS011;42298;53.638;9.876;2023-01-01T01:12:12;21.38;;;8.02;;
56399;SDS011;42298;53.638;9.876;2023-01-01T01:14:37;18.35;;;6.90;;
56399;SDS011;42298;53.638;9.876;2023-01-01T01:17:02;18.80;;;7.43;;
56399;SDS011;42298;53.638;9.876;2023-01-01T01:19:28;15.63;;;5.88;;
56399;SDS011;42298;53.638;9.876;2023-01-01T01:21:53;17.08;;;7.03;;
56399;SDS011;42298;53.638;9.876;2023-01-01T01:24:18;13.90;;;6.10;;
56399;SDS011;42298;53.638;9.876;2023-01-01T01:26:44;17.60;;;6.63;;
56399;SDS011;42298;53.638;9.876;2023-01-01T01:29:09;17.45;;;6.35;;
56399;SDS011;42298;53.638;9.876;2023-01-01T01:31:34;17.50;;;5.97;;
56399;SDS011;42298;53.638;9.876;2023-01-01T01:34:00;13.77;;;5.30;;
56399;SDS011;42298;53.638;9.876;2023-01-01T01:36:26;15.18;;;5.53;;
56399;SDS011;42298;53.638;9.876;2023-01-01T01:38:52;13.95;;;5.22;;
56399;SDS011;42298;53.638;9.876;2023-01-01T01:41:19;19.73;;;5.72;;
56399;SDS011;42298;53.638;9.876;2023-01-01T01:43:53;17.17;;;5.25;;
56399;SDS011;42298;53.638;9.876;2023-01-01T01:46:28;16.60;;;5.10;;
56399;SDS011;42298;53.638;9.876;2023-01-01T01:49:04;13.30;;;4.85;;
56399;SDS011;42298;53.638;9.876;2023-01-01T01:51:45;15.25;;;5.00;;
56399;SDS011;42298;53.638;9.876;2023-01-01T01:54:13;13.32;;;4.93;;
56399;SDS011;42298;53.638;9.876;2023-01-01T01:56:46;13.25;;;4.78;;
56399;SDS011;42298;53.638;9.876;2023-01-01T01:59:16;13.90;;;5.78;;
56399;SDS011;42298;53.638;9.876;2023-01-01T02:01:44;17.95;;;5.57;;
56399;SDS011;42298;53.638;9.876;2023-01-01T02:04:09;15.23;;;4.97;;
56399;SDS011;42298;53.638;9.876;2023-01-01T02:06:36;15.02;;;5.80;;
56399;SDS011;42298;53.638;9.876;2023-01-01T02:09:04;15.88;;;4.65;;
56399;SDS011;42298;53.638;9.876;2023-01-01T02:11:31;16.05;;;5.40;;
56399;SDS011;42298;53.638;9.876;2023-01-01T02:13:57;14.38;;;5.18;;
56399;SDS011;42298;53.638;9.876;2023-01-01T02:30:15;13.15;;;4.90;;
56399;SDS011;42298;53.638;9.876;2023-01-01T02:32:46;15.52;;;5.88;;
56399;SDS011;42298;53.638;9.876;2023-01-01T02:35:17;15.35;;;5.90;;
56399;SDS011;42298;53.638;9.876;2023-01-01T02:37:59;15.98;;;5.50;;
56399;SDS011;42298;53.638;9.876;2023-01-01T02:40:29;15.95;;;5.40;;
56399;SDS011;42298;53.638;9.876;2023-01-01T02:42:57;18.35;;;5.82;;
56399;SDS011;42298;53.638;9.876;2023-01-01T02:45:22;15.52;;;5.55;;
56399;SDS011;42298;53.638;9.876;2023-01-01T02:47:48;14.60;;;5.60;;
56399;SDS011;42298;53.638;9.876;2023-01-01T02:50:20;13.05;;;5.63;;
56399;SDS011;42298;53.638;9.876;2023-01-01T02:53:00;13.48;;;5.70;;
56399;SDS011;42298;53.638;9.876;2023-01-01T03:04:09;16.42;;;6.32;;
56399;SDS011;42298;53.638;9.876;2023-01-01T03:14:50;14.70;;;6.40;;
56399;SDS011;42298;53.638;9.876;2023-01-01T03:20:54;15.15;;;7.30;;
56399;SDS011;42298;53.638;9.876;2023-01-01T03:23:24;16.70;;;6.50;;
56399;SDS011;42298;53.638;9.876;2023-01-01T03:25:54;16.30;;;7.00;;
56399;SDS011;42298;53.638;9.876;2023-01-01T03:28:43;15.38;;;7.63;;
56399;SDS011;42298;53.638;9.876;2023-01-01T03:31:13;19.90;;;7.20;;
56399;SDS011;42298;53.638;9.876;2023-01-01T03:33:45;16.90;;;7.78;;
56399;SDS011;42298;53.638;9.876;2023-01-01T03:36:23;16.95;;;7.63;;
56399;SDS011;42298;53.638;9.876;2023-01-01T03:39:05;14.43;;;7.25;;
56399;SDS011;42298;53.638;9.876;2023-01-01T03:41:45;14.80;;;7.45;;
56399;SDS011;42298;53.638;9.876;2023-01-01T03:44:24;17.00;;;8.07;;
56399;SDS011;42298;53.638;9.876;2023-01-01T03:46:56;21.00;;;8.25;;
56399;SDS011;42298;53.638;9.876;2023-01-01T03:49:22;20.08;;;8.18;;
56399;SDS011;42298;53.638;9.876;2023-01-01T03:52:10;18.88;;;7.88;;
56399;SDS011;42298;53.638;9.876;2023-01-01T03:55:28;18.38;;;8.98;;
56399;SDS011;42298;53.638;9.876;2023-01-01T03:57:41;15.85;;;8.93;;
56399;SDS011;42298;53.638;9.876;2023-01-01T04:00:17;17.20;;;8.75;;
56399;SDS011;42298;53.638;9.876;2023-01-01T04:02:49;17.85;;;8.13;;
56399;SDS011;42298;53.638;9.876;2023-01-01T04:05:20;16.27;;;7.50;;
56399;SDS011;42298;53.638;9.876;2023-01-01T04:07:47;16.63;;;7.95;;
56399;SDS011;42298;53.638;9.876;2023-01-01T04:10:13;19.95;;;8.10;;
56399;SDS011;42298;53.638;9.876;2023-01-01T04:12:46;20.05;;;7.60;;
56399;SDS011;42298;53.638;9.876;2023-01-01T04:15:14;15.88;;;7.18;;
56399;SDS011;42298;53.638;9.876;2023-01-01T04:17:41;16.75;;;7.05;;
56399;SDS011;42298;53.638;9.876;2023-01-01T04:20:06;16.02;;;7.32;;
56399;SDS011;42298;53.638;9.876;2023-01-01T04:22:33;16.10;;;6.85;;
56399;SDS011;42298;53.638;9.876;2023-01-01T04:24:58;15.52;;;7.00;;
56399;SDS011;42298;53.638;9.876;2023-01-01T04:27:23;15.80;;;6.80;;
56399;SDS011;42298;53.638;9.876;2023-01-01T04:29:49;17.17;;;7.28;;
56399;SDS011;42298;53.638;9.876;2023-01-01T04:32:15;19.17;;;7.07;;
56399;SDS011;42298;53.638;9.876;2023-01-01T04:34:41;14.50;;;6.45;;
56399;SDS011;42298;53.638;9.876;2023-01-01T04:37:06;13.98;;;7.15;;
56399;SDS011;42298;53.638;9.876;2023-01-01T04:39:31;17.27;;;6.70;;
56399;SDS011;42298;53.638;9.876;2023-01-01T04:41:56;16.98;;;6.70;;
56399;SDS011;42298;53.638;9.876;2023-01-01T04:44:22;16.13;;;6.72;;
56399;SDS011;42298;53.638;9.876;2023-01-01T04:46:47;15.98;;;6.47;;
56399;SDS011;42298;53.638;9.876;2023-01-01T04:49:13;12.63;;;6.28;;
56399;SDS011;42298;53.638;9.876;2023-01-01T04:51:39;12.20;;;5.88;;
56399;SDS011;42298;53.638;9.876;2023-01-01T04:54:04;14.18;;;6.00;;
56399;SDS011;42298;53.638;9.876;2023-01-01T04:56:29;18.42;;;6.50;;
56399;SDS011;42298;53.638;9.876;2023-01-01T04:58:55;19.33;;;5.80;;
56399;SDS011;42298;53.638;9.876;2023-01-01T05:01:23;14.63;;;5.45;;
56399;SDS011;42298;53.638;9.876;2023-01-01T05:03:50;13.15;;;5.70;;
56399;SDS011;42298;53.638;9.876;2023-01-01T05:06:16;14.70;;;5.63;;
56399;SDS011;42298;53.638;9.876;2023-01-01T05:08:43;15.68;;;5.65;;
56399;SDS011;42298;53.638;9.876;2023-01-01T05:11:16;11.30;;;4.70;;
56399;SDS011;42298;53.638;9.876;2023-01-01T05:13:46;14.40;;;5.15;;
56399;SDS011;42298;53.638;9.876;2023-01-01T05:16:14;13.15;;;5.30;;
56399;SDS011;42298;53.638;9.876;2023-01-01T05:18:41;11.30;;;4.47;;
56399;SDS011;42298;53.638;9.876;2023-01-01T05:21:08;14.63;;;4.82;;
56399;SDS011;42298;53.638;9.876;2023-01-01T05:23:39;11.27;;;4.15;;
56399;SDS011;42298;53.638;9.876;2023-01-01T05:26:09;10.85;;;4.18;;
56399;SDS011;42298;53.638;9.876;2023-01-01T05:28:36;14.20;;;4.28;;
56399;SDS011;42298;53.638;9.876;2023-01-01T05:31:07;11.43;;;4.22;;
56399;SDS011;42298;53.638;9.876;2023-01-01T05:33:34;12.00;;;3.85;;
56399;SDS011;42298;53.638;9.876;2023-01-01T05:36:01;10.45;;;4.22;;
56399;SDS011;42298;53.638;9.876;2023-01-01T05:38:27;11.10;;;4.30;;
56399;SDS011;42298;53.638;9.876;2023-01-01T05:40:53;10.52;;;3.72;;
56399;SDS011;42298;53.638;9.876;2023-01-01T05:43:19;8.48;;;3.70;;
56399;SDS011;42298;53.638;9.876;2023-01-01T05:45:44;14.75;;;4.30;;
56399;SDS011;42298;53.638;9.876;2023-01-01T05:48:10;10.02;;;3.20;;
56399;SDS011;42298;53.638;9.876;2023-01-01T05:50:35;10.68;;;3.67;;
56399;SDS011;42298;53.638;9.876;2023-01-01T05:53:01;13.07;;;4.10;;
56399;SDS011;42298;53.638;9.876;2023-01-01T05:55:26;14.02;;;4.88;;
56399;SDS011;42298;53.638;9.876;2023-01-01T05:57:52;9.98;;;3.67;;
56399;SDS011;42298;53.638;9.876;2023-01-01T06:00:17;12.20;;;4.13;;
56399;SDS011;42298;53.638;9.876;2023-01-01T06:02:43;11.30;;;4.10;;
56399;SDS011;42298;53.638;9.876;2023-01-01T06:05:08;14.30;;;4.47;;
56399;SDS011;42298;53.638;9.876;2023-01-01T06:07:33;12.63;;;3.88;;
56399;SDS011;42298;53.638;9.876;2023-01-01T06:09:59;14.05;;;4.18;;
56399;SDS011;42298;53.638;9.876;2023-01-01T06:12:24;11.77;;;3.92;;
56399;SDS011;42298;53.638;9.876;2023-01-01T06:14:49;9.93;;;3.67;;
56399;SDS011;42298;53.638;9.876;2023-01-01T06:17:14;7.55;;;2.97;;
56399;SDS011;42298;53.638;9.876;2023-01-01T06:19:40;14.13;;;3.60;;
56399;SDS011;42298;53.638;9.876;2023-01-01T06:22:05;13.25;;;3.72;;
56399;SDS011;42298;53.638;9.876;2023-01-01T06:24:30;14.15;;;3.80;;
56399;SDS011;42298;53.638;9.876;2023-01-01T06:26:56;12.05;;;3.85;;
56399;SDS011;42298;53.638;9.876;2023-01-01T06:29:21;12.23;;;3.78;;
56399;SDS011;42298;53.638;9.876;2023-01-01T06:31:46;13.35;;;3.83;;
56399;SDS011;42298;53.638;9.876;2023-01-01T06:34:12;10.75;;;3.58;;
56399;SDS011;42298;53.638;9.876;2023-01-01T06:36:37;9.80;;;3.10;;
56399;SDS011;42298;53.638;9.876;2023-01-01T06:39:02;9.45;;;3.67;;
56399;SDS011;42298;53.638;9.876;2023-01-01T06:41:28;11.32;;;3.67;;
56399;SDS011;42298;53.638;9.876;2023-01-01T06:43:54;10.77;;;3.50;;
56399;SDS011;42298;53.638;9.876;2023-01-01T06:46:28;10.80;;;3.22;;
56399;SDS011;42298;53.638;9.876;2023-01-01T06:48:56;8.70;;;3.13;;
56399;SDS011;42298;53.638;9.876;2023-01-01T06:51:24;8.88;;;3.55;;
56399;SDS011;42298;53.638;9.876;2023-01-01T06:53:51;8.38;;;3.30;;
56399;SDS011;42298;53.638;9.876;2023-01-01T06:56:17;10.38;;;3.47;;
56399;SDS011;42298;53.638;9.876;2023-01-01T06:58:43;8.13;;;2.90;;
56399;SDS011;42298;53.638;9.876;2023-01-01T07:01:10;11.05;;;3.10;;
56399;SDS011;42298;53.638;9.876;2023-01-01T07:03:40;8.77;;;3.15;;
56399;SDS011;42298;53.638;9.876;2023-01-01T07:06:07;9.93;;;3.13;;
56399;SDS011;42298;53.638;9.876;2023-01-01T07:08:33;9.25;;;3.20;;
56399;SDS011;42298;53.638;9.876;2023-01-01T07:10:59;10.00;;;3.10;;
56399;SDS011;42298;53.638;9.876;2023-01-01T07:13:24;9.50;;;2.90;;
56399;SDS011;42298;53.638;9.876;2023-01-01T07:15:51;13.45;;;3.08;;
56399;SDS011;42298;53.638;9.876;2023-01-01T07:18:17;7.93;;;2.85;;
56399;SDS011;42298;53.638;9.876;2023-01-01T07:20:47;9.55;;;2.97;;
56399;SDS011;42298;53.638;9.876;2023-01-01T07:23:16;7.82;;;3.15;;
56399;SDS011;42298;53.638;9.876;2023-01-01T07:25:42;9.85;;;3.20;;
56399;SDS011;42298;53.638;9.876;2023-01-01T07:28:07;10.30;;;3.08;;
56399;SDS011;42298;53.638;9.876;2023-01-01T07:30:33;9.20;;;3.17;;
56399;SDS011;42298;53.638;9.876;2023-01-01T07:32:58;9.57;;;3.13;;
56399;SDS011;42298;53.638;9.876;2023-01-01T07:35:24;10.23;;;3.17;;
56399;SDS011;42298;53.638;9.876;2023-01-01T07:37:50;12.32;;;3.20;;
56399;SDS011;42298;53.638;9.876;2023-01-01T07:40:15;8.77;;;3.28;;
56399;SDS011;42298;53.638;9.876;2023-01-01T07:42:40;9.05;;;3.13;;
56399;SDS011;42298;53.638;9.876;2023-01-01T07:45:06;11.68;;;3.20;;
56399;SDS011;42298;53.638;9.876;2023-01-01T07:47:32;6.93;;;2.50;;
56399;SDS011;42298;53.638;9.876;2023-01-01T07:49:57;9.65;;;3.00;;
56399;SDS011;42298;53.638;9.876;2023-01-01T07:52:25;9.60;;;3.00;;
56399;SDS011;42298;53.638;9.876;2023-01-01T07:54:51;10.68;;;2.95;;
56399;SDS011;42298;53.638;9.876;2023-01-01T07:57:16;7.65;;;2.95;;
56399;SDS011;42298;53.638;9.876;2023-01-01T07:59:44;10.95;;;2.60;;
56399;SDS011;42298;53.638;9.876;2023-01-01T08:02:12;8.00;;;2.88;;
56399;SDS011;42298;53.638;9.876;2023-01-01T08:04:41;8.02;;;2.55;;
56399;SDS011;42298;53.638;9.876;2023-01-01T08:07:06;6.28;;;2.90;;
56399;SDS011;42298;53.638;9.876;2023-01-01T08:09:31;10.80;;;3.08;;
56399;SDS011;42298;53.638;9.876;2023-01-01T08:11:59;7.55;;;2.38;;
56399;SDS011;42298;53.638;9.876;2023-01-01T08:14:28;5.50;;;2.13;;
56399;SDS011;42298;53.638;9.876;2023-01-01T08:17:12;4.00;;;1.95;;
56399;SDS011;42298;53.638;9.876;2023-01-01T08:19:37;5.22;;;1.75;;
56399;SDS011;42298;53.638;9.876;2023-01-01T08:22:02;8.07;;;2.10;;
56399;SDS011;42298;53.638;9.876;2023-01-01T08:24:28;9.57;;;2.22;;
56399;SDS011;42298;53.638;9.876;2023-01-01T08:26:53;5.65;;;2.30;;
56399;SDS011;42298;53.638;9.876;2023-01-01T08:29:18;6.93;;;1.90;;
56399;SDS011;42298;53.638;9.876;2023-01-01T08:31:44;7.88;;;2.10;;
56399;SDS011;42298;53.638;9.876;2023-01-01T08:34:09;7.30;;;2.17;;
56399;SDS011;42298;53.638;9.876;2023-01-01T08:36:35;7.90;;;2.08;;
56399;SDS011;42298;53.638;9.876;2023-01-01T08:39:01;8.85;;;2.25;;
56399;SDS011;42298;53.638;9.876;2023-01-01T08:41:28;6.35;;;2.00;;
56399;SDS011;42298;53.638;9.876;2023-01-01T08:43:53;7.22;;;2.13;;
56399;SDS011;42298;53.638;9.876;2023-01-01T08:46:18;7.50;;;1.88;;
56399;SDS011;42298;53.638;9.876;2023-01-01T08:48:44;3.70;;;1.80;;
56399;SDS011;42298;53.638;9.876;2023-01-01T08:51:09;5.47;;;2.00;;
56399;SDS011;42298;53.638;9.876;2023-01-01T08:53:35;6.10;;;2.10;;
56399;SDS011;42298;53.638;9.876;2023-01-01T08:56:01;9.23;;;2.00;;
56399;SDS011;42298;53.638;9.876;2023-01-01T08:58:31;7.03;;;1.90;;
56399;SDS011;42298;53.638;9.876;2023-01-01T09:01:00;5.25;;;1.63;;
56399;SDS011;42298;53.638;9.876;2023-01-01T09:03:26;9.05;;;2.63;;
56399;SDS011;42298;53.638;9.876;2023-01-01T09:05:52;7.53;;;1.85;;
56399;SDS011;42298;53.638;9.876;2023-01-01T09:08:17;5.85;;;1.60;;
56399;SDS011;42298;53.638;9.876;2023-01-01T09:10:43;5.90;;;2.20;;
56399;SDS011;42298;53.638;9.876;2023-01-01T09:13:10;5.18;;;1.65;;
56399;SDS011;42298;53.638;9.876;2023-01-01T09:15:37;6.90;;;2.08;;
56399;SDS011;42298;53.638;9.876;2023-01-01T09:18:02;7.07;;;2.25;;
56399;SDS011;42298;53.638;9.876;2023-01-01T09:20:28;6.47;;;1.80;;
56399;SDS011;42298;53.638;9.876;2023-01-01T09:22:53;7.35;;;2.15;;
56399;SDS011;42298;53.638;9.876;2023-01-01T09:25:18;5.93;;;2.00;;
56399;SDS011;42298;53.638;9.876;2023-01-01T09:27:44;5.10;;;1.80;;
56399;SDS011;42298;53.638;9.876;2023-01-01T09:30:09;7.65;;;2.17;;
56399;SDS011;42298;53.638;9.876;2023-01-01T09:32:35;7.45;;;2.08;;
56399;SDS011;42298;53.638;9.876;2023-01-01T09:35:00;7.22;;;1.80;;
56399;SDS011;42298;53.638;9.876;2023-01-01T09:37:26;6.85;;;1.67;;
56399;SDS011;42298;53.638;9.876;2023-01-01T09:39:51;4.88;;;1.95;;
56399;SDS011;42298;53.638;9.876;2023-01-01T09:42:29;6.03;;;1.80;;
56399;SDS011;42298;53.638;9.876;2023-01-01T09:47:31;5.35;;;1.88;;
56399;SDS011;42298;53.638;9.876;2023-01-01T09:50:05;4.40;;;1.60;;
56399;SDS011;42298;53.638;9.876;2023-01-01T09:52:40;4.60;;;1.63;;
56399;SDS011;42298;53.638;9.876;2023-01-01T09:55:17;6.85;;;1.70;;
56399;SDS011;42298;53.638;9.876;2023-01-01T09:57:58;6.97;;;1.73;;
56399;SDS011;42298;53.638;9.876;2023-01-01T10:00:24;6.55;;;1.70;;
56399;SDS011;42298;53.638;9.876;2023-01-01T10:02:53;7.20;;;1.70;;
56399;SDS011;42298;53.638;9.876;2023-01-01T10:05:33;6.70;;;1.77;;
56399;SDS011;42298;53.638;9.876;2023-01-01T10:08:17;9.32;;;2.25;;
56399;SDS011;42298;53.638;9.876;2023-01-01T10:10:51;10.07;;;1.95;;
56399;SDS011;42298;53.638;9.876;2023-01-01T10:18:37;5.30;;;2.00;;
56399;SDS011;42298;53.638;9.876;2023-01-01T10:21:19;7.25;;;1.92;;
56399;SDS011;42298;53.638;9.876;2023-01-01T10:24:02;5.57;;;1.85;;
56399;SDS011;42298;53.638;9.876;2023-01-01T10:26:33;4.80;;;1.55;;
56399;SDS011;42298;53.638;9.876;2023-01-01T10:29:10;4.40;;;1.80;;
56399;SDS011;42298;53.638;9.876;2023-01-01T10:31:41;5.68;;;1.77;;
56399;SDS011;42298;53.638;9.876;2023-01-01T10:34:18;5.55;;;1.65;;
56399;SDS011;42298;53.638;9.876;2023-01-01T10:36:44;7.13;;;1.90;;
56399;SDS011;42298;53.638;9.876;2023-01-01T10:39:16;5.32;;;1.70;;
56399;SDS011;42298;53.638;9.876;2023-01-01T10:41:45;5.15;;;1.63;;
56399;SDS011;42298;53.638;9.876;2023-01-01T10:44:11;5.55;;;1.80;;
56399;SDS011;42298;53.638;9.876;2023-01-01T10:46:40;5.30;;;1.90;;
56399;SDS011;42298;53.638;9.876;2023-01-01T10:49:09;6.95;;;1.90;;
56399;SDS011;42298;53.638;9.876;2023-01-01T10:51:37;7.90;;;2.08;;
56399;SDS011;42298;53.638;9.876;2023-01-01T10:54:42;7.05;;;2.33;;
56399;SDS011;42298;53.638;9.876;2023-01-01T10:57:13;7.90;;;1.95;;
56399;SDS011;42298;53.638;9.876;2023-01-01T10:59:41;9.23;;;2.00;;
56399;SDS011;42298;53.638;9.876;2023-01-01T11:04:49;8.65;;;1.90;;
56399;SDS011;42298;53.638;9.876;2023-01-01T11:07:27;11.13;;;2.30;;
56399;SDS011;42298;53.638;9.876;2023-01-01T11:09:56;10.13;;;2.45;;
56399;SDS011;42298;53.638;9.876;2023-01-01T11:12:26;6.93;;;1.88;;
56399;SDS011;42298;53.638;9.876;2023-01-01T11:14:55;7.78;;;2.00;;
56399;SDS011;42298;53.638;9.876;2023-01-01T11:17:34;9.10;;;2.80;;
56399;SDS011;42298;53.638;9.876;2023-01-01T11:20:01;6.70;;;1.95;;
56399;SDS011;42298;53.638;9.876;2023-01-01T11:22:35;9.75;;;2.75;;
56399;SDS011;42298;53.638;9.876;2023-01-01T11:25:21;9.25;;;2.35;;
56399;SDS011;42298;53.638;9.876;2023-01-01T11:28:11;9.80;;;2.00;;
56399;SDS011;42298;53.638;9.876;2023-01-01T11:30:40;5.53;;;1.90;;
56399;SDS011;42298;53.638;9.876;2023-01-01T11:33:12;8.98;;;1.83;;
56399;SDS011;42298;53.638;9.876;2023-01-01T11:35:51;7.68;;;1.98;;
56399;SDS011;42298;53.638;9.876;2023-01-01T11:38:19;8.32;;;2.13;;
56399;SDS011;42298;53.638;9.876;2023-01-01T11:40:51;4.88;;;1.45;;
56399;SDS011;42298;53.638;9.876;2023-01-01T11:43:23;6.10;;;1.77;;
56399;SDS011;42298;53.638;9.876;2023-01-01T11:45:52;7.18;;;1.67;;
56399;SDS011;42298;53.638;9.876;2023-01-01T11:48:27;4.32;;;1.52;;
56399;SDS011;42298;53.638;9.876;2023-01-01T11:50:56;5.00;;;1.98;;
56399;SDS011;42298;53.638;9.876;2023-01-01T11:53:35;8.98;;;2.22;;
56399;SDS011;42298;53.638;9.876;2023-01-01T11:56:21;9.00;;;2.63;;
56399;SDS011;42298;53.638;9.876;2023-01-01T11:59:01;10.15;;;2.10;;
56399;SDS011;42298;53.638;9.876;2023-01-01T12:01:39;7.15;;;1.88;;
56399;SDS011;42298;53.638;9.876;2023-01-01T12:04:30;6.28;;;1.83;;
56399;SDS011;42298;53.638;9.876;2023-01-01T12:07:06;10.07;;;2.33;;
56399;SDS011;42298;53.638;9.876;2023-01-01T12:09:46;8.32;;;2.25;;
56399;SDS011;42298;53.638;9.876;2023-01-01T12:12:17;8.35;;;1.90;;
56399;SDS011;42298;53.638;9.876;2023-01-01T12:22:49;8.93;;;2.05;;
56399;SDS011;42298;53.638;9.876;2023-01-01T12:25:17;8.88;;;1.88;;
56399;SDS011;42298;53.638;9.876;2023-01-01T12:30:31;7.78;;;2.33;;
56399;SDS011;42298;53.638;9.876;2023-01-01T12:42:15;6.95;;;2.00;;
56399;SDS011;42298;53.638;9.876;2023-01-01T12:44:58;7.38;;;1.80;;
56399;SDS011;42298;53.638;9.876;2023-01-01T12:47:31;5.15;;;1.70;;
56399;SDS011;42298;53.638;9.876;2023-01-01T12:55:45;7.90;;;1.83;;
56399;SDS011;42298;53.638;9.876;2023-01-01T12:58:18;7.10;;;2.05;;
56399;SDS011;42298;53.638;9.876;2023-01-01T13:00:53;8.00;;;1.77;;
56399;SDS011;42298;53.638;9.876;2023-01-01T13:03:24;6.20;;;1.98;;
56399;SDS011;42298;53.638;9.876;2023-01-01T13:05:54;6.82;;;1.70;;
56399;SDS011;42298;53.638;9.876;2023-01-01T13:08:22;8.02;;;1.83;;
56399;SDS011;42298;53.638;9.876;2023-01-01T13:10:48;7.03;;;1.80;;
56399;SDS011;42298;53.638;9.876;2023-01-01T13:13:17;8.65;;;1.95;;
56399;SDS011;42298;53.638;9.876;2023-01-01T13:15:44;11.98;;;2.20;;
56399;SDS011;42298;53.638;9.876;2023-01-01T13:20:44;7.00;;;2.00;;
56399;SDS011;42298;53.638;9.876;2023-01-01T13:28:43;7.63;;;1.85;;
56399;SDS011;42298;53.638;9.876;2023-01-01T13:31:08;9.00;;;2.20;;
56399;SDS011;42298;53.638;9.876;2023-01-01T13:33:33;9.98;;;2.25;;
56399;SDS011;42298;53.638;9.876;2023-01-01T13:43:51;13.45;;;2.40;;
56399;SDS011;42298;53.638;9.876;2023-01-01T14:02:17;8.93;;;2.03;;
56399;SDS011;42298;53.638;9.876;2023-01-01T14:04:49;7.65;;;1.88;;
56399;SDS011;42298;53.638;9.876;2023-01-01T14:12:42;8.82;;;2.22;;
56399;SDS011;42298;53.638;9.876;2023-01-01T14:17:54;10.70;;;2.28;;
56399;SDS011;42298;53.638;9.876;2023-01-01T14:20:22;8.05;;;2.10;;
56399;SDS011;42298;53.638;9.876;2023-01-01T14:22:55;11.20;;;2.78;;
56399;SDS011;42298;53.638;9.876;2023-01-01T14:25:29;10.07;;;2.22;;
56399;SDS011;42298;53.638;9.876;2023-01-01T14:27:55;8.70;;;2.70;;
56399;SDS011;42298;53.638;9.876;2023-01-01T14:30:22;7.93;;;1.98;;
56399;SDS011;42298;53.638;9.876;2023-01-01T14:32:55;11.35;;;1.95;;
56399;SDS011;42298;53.638;9.876;2023-01-01T14:35:23;9.45;;;2.30;;
56399;SDS011;42298;53.638;9.876;2023-01-01T14:37:49;11.63;;;2.58;;
56399;SDS011;42298;53.638;9.876;2023-01-01T14:40:19;10.52;;;3.13;;
56399;SDS011;42298;53.638;9.876;2023-01-01T14:43:10;10.20;;;2.22;;
56399;SDS011;42298;53.638;9.876;2023-01-01T14:45:36;8.07;;;2.20;;
56399;SDS011;42298;53.638;9.876;2023-01-01T14:48:10;9.50;;;2.40;;
56399;SDS011;42298;53.638;9.876;2023-01-01T14:50:42;6.95;;;2.00;;
56399;SDS011;42298;53.638;9.876;2023-01-01T14:53:12;9.38;;;2.38;;
56399;SDS011;42298;53.638;9.876;2023-01-01T14:55:43;11.05;;;2.42;;
56399;SDS011;42298;53.638;9.876;2023-01-01T14:58:17;10.05;;;2.10;;
56399;SDS011;42298;53.638;9.876;2023-01-01T15:00:46;9.77;;;2.45;;
56399;SDS011;42298;53.638;9.876;2023-01-01T15:03:13;7.38;;;2.03;;
56399;SDS011;42298;53.638;9.876;2023-01-01T15:06:02;8.93;;;2.67;;
56399;SDS011;42298;53.638;9.876;2023-01-01T15:08:27;10.48;;;2.30;;
56399;SDS011;42298;53.638;9.876;2023-01-01T15:10:54;9.82;;;2.55;;
56399;SDS011;42298;53.638;9.876;2023-01-01T15:13:21;15.35;;;2.58;;
56399;SDS011;42298;53.638;9.876;2023-01-01T15:15:49;10.95;;;2.30;;
56399;SDS011;42298;53.638;9.876;2023-01-01T15:18:38;12.25;;;2.42;;
56399;SDS011;42298;53.638;9.876;2023-01-01T15:21:14;12.32;;;2.40;;
56399;SDS011;42298;53.638;9.876;2023-01-01T15:23:54;8.77;;;2.53;;
56399;SDS011;42298;53.638;9.876;2023-01-01T15:26:26;13.90;;;2.92;;
56399;SDS011;42298;53.638;9.876;2023-01-01T15:29:01;11.60;;;2.60;;
56399;SDS011;42298;53.638;9.876;2023-01-01T15:31:33;10.40;;;2.70;;
56399;SDS011;42298;53.638;9.876;2023-01-01T15:34:00;9.60;;;2.42;;
56399;SDS011;42298;53.638;9.876;2023-01-01T15:36:25;14.40;;;2.80;;
56399;SDS011;42298;53.638;9.876;2023-01-01T15:38:51;8.82;;;2.35;;
56399;SDS011;42298;53.638;9.876;2023-01-01T15:41:23;8.95;;;2.50;;
56399;SDS011;42298;53.638;9.876;2023-01-01T15:44:15;9.98;;;2.30;;
56399;SDS011;42298;53.638;9.876;2023-01-01T15:46:46;9.32;;;2.45;;
56399;SDS011;42298;53.638;9.876;2023-01-01T15:49:28;11.02;;;2.70;;
56399;SDS011;42298;53.638;9.876;2023-01-01T15:51:58;13.73;;;3.13;;
56399;SDS011;42298;53.638;9.876;2023-01-01T15:54:27;14.80;;;2.95;;
56399;SDS011;42298;53.638;9.876;2023-01-01T15:56:53;9.25;;;2.97;;
56399;SDS011;42298;53.638;9.876;2023-01-01T15:59:23;12.55;;;3.30;;
56399;SDS011;42298;53.638;9.876;2023-01-01T16:01:49;11.15;;;3.50;;
56399;SDS011;42298;53.638;9.876;2023-01-01T16:04:22;10.80;;;2.85;;
56399;SDS011;42298;53.638;9.876;2023-01-01T16:06:52;11.68;;;2.65;;
56399;SDS011;42298;53.638;9.876;2023-01-01T16:09:20;12.25;;;3.10;;
56399;SDS011;42298;53.638;9.876;2023-01-01T16:11:52;11.82;;;2.70;;
56399;SDS011;42298;53.638;9.876;2023-01-01T16:14:19;13.07;;;2.88;;
56399;SDS011;42298;53.638;9.876;2023-01-01T16:16:49;13.27;;;3.42;;
56399;SDS011;42298;53.638;9.876;2023-01-01T16:19:17;14.65;;;3.03;;
56399;SDS011;42298;53.638;9.876;2023-01-01T16:21:43;15.48;;;2.97;;
56399;SDS011;42298;53.638;9.876;2023-01-01T16:24:12;10.70;;;2.83;;
56399;SDS011;42298;53.638;9.876;2023-01-01T16:26:38;14.07;;;3.17;;
56399;SDS011;42298;53.638;9.876;2023-01-01T16:29:04;13.38;;;3.13;;
56399;SDS011;42298;53.638;9.876;2023-01-01T16:31:29;12.50;;;2.97;;
56399;SDS011;42298;53.638;9.876;2023-01-01T16:33:55;9.02;;;3.15;;
56399;SDS011;42298;53.638;9.876;2023-01-01T16:36:25;12.38;;;3.17;;
56399;SDS011;42298;53.638;9.876;2023-01-01T16:38:54;10.95;;;2.88;;
56399;SDS011;42298;53.638;9.876;2023-01-01T16:41:19;12.60;;;3.13;;
56399;SDS011;42298;53.638;9.876;2023-01-01T16:43:45;13.18;;;3.47;;